sensor_id;sensor_type;location;lat;lon;timestamp;pressure;altitude;pressure_sealevel;temperature;humidity
64739;BME280;51175;51.186;0.276;2023-01-28T00:00:28;102732.91;;;9.22;66.00
64739;BME280;51175;51.186;0.276;2023-01-28T00:01:07;102728.66;;;9.21;66.09
64739;BME280;51175;51.186;0.276;2023-01-28T00:01:38;102728.66;;;9.21;66.14
64739;BME280;51175;51.186;0.276;2023-01-28T00:02:11;102731.28;;;9.21;66.15
64739;BME280;51175;51.186;0.276;2023-01-28T00:02:42;102728.66;;;9.21;66.14
64739;BME280;51175;51.186;0.276;2023-01-28T00:03:12;102719.09;;;9.19;66.20
64739;BME280;51175;51.186;0.276;2023-01-28T00:03:48;102722.56;;;9.20;66.09
64739;BME280;51175;51.186;0.276;2023-01-28T00:04:18;102728.03;;;9.18;66.11
64739;BME280;51175;51.186;0.276;2023-01-28T00:04:49;102728.03;;;9.18;66.18
64739;BME280;51175;51.186;0.276;2023-01-28T00:05:19;102718.50;;;9.17;66.45
64739;BME280;51175;51.186;0.276;2023-01-28T00:05:51;102726.41;;;9.17;66.15
64739;BME280;51175;51.186;0.276;2023-01-28T00:06:23;102720.31;;;9.17;66.14
64739;BME280;51175;51.186;0.276;2023-01-28T00:06:53;102717.66;;;9.17;65.96
64739;BME280;51175;51.186;0.276;2023-01-28T00:07:23;102721.13;;;9.17;66.25
64739;BME280;51175;51.186;0.276;2023-01-28T00:07:54;102720.50;;;9.15;66.31
64739;BME280;51175;51.186;0.276;2023-01-28T00:08:26;102715.03;;;9.17;66.25
64739;BME280;51175;51.186;0.276;2023-01-28T00:08:56;102726.59;;;9.16;66.12
64739;BME280;51175;51.186;0.276;2023-01-28T00:09:26;102722.13;;;9.16;66.09
64739;BME280;51175;51.186;0.276;2023-01-28T00:09:57;102721.31;;;9.16;66.05
64739;BME280;51175;51.186;0.276;2023-01-28T00:10:27;102716.06;;;9.16;66.18
64739;BME280;51175;51.186;0.276;2023-01-28T00:11:02;102711.56;;;9.16;66.10
64739;BME280;51175;51.186;0.276;2023-01-28T00:11:33;102723.13;;;9.15;66.14
64739;BME280;51175;51.186;0.276;2023-01-28T00:12:04;102724.75;;;9.16;66.13
64739;BME280;51175;51.186;0.276;2023-01-28T00:12:35;102719.47;;;9.16;66.09
64739;BME280;51175;51.186;0.276;2023-01-28T00:13:06;102721.31;;;9.16;66.23
64739;BME280;51175;51.186;0.276;2023-01-28T00:13:36;102719.47;;;9.16;66.05
64739;BME280;51175;51.186;0.276;2023-01-28T00:14:07;102717.88;;;9.15;66.13
64739;BME280;51175;51.186;0.276;2023-01-28T00:14:37;102719.69;;;9.15;66.17
64739;BME280;51175;51.186;0.276;2023-01-28T00:15:08;102723.13;;;9.15;66.08
64739;BME280;51175;51.186;0.276;2023-01-28T00:15:40;102717.88;;;9.15;66.09
64739;BME280;51175;51.186;0.276;2023-01-28T00:16:10;102717.88;;;9.15;66.18
64739;BME280;51175;51.186;0.276;2023-01-28T00:16:40;102714.41;;;9.15;66.25
64739;BME280;51175;51.186;0.276;2023-01-28T00:17:11;102715.41;;;9.14;66.02
64739;BME280;51175;51.186;0.276;2023-01-28T00:17:41;102711.75;;;9.15;65.95
64739;BME280;51175;51.186;0.276;2023-01-28T00:18:12;102713.59;;;9.14;66.12
64739;BME280;51175;51.186;0.276;2023-01-28T00:18:42;102715.41;;;9.14;66.12
64739;BME280;51175;51.186;0.276;2023-01-28T00:19:13;102720.69;;;9.14;66.19
64739;BME280;51175;51.186;0.276;2023-01-28T00:19:43;102715.41;;;9.14;66.27
64739;BME280;51175;51.186;0.276;2023-01-28T00:20:14;102716.44;;;9.13;66.11
64739;BME280;51175;51.186;0.276;2023-01-28T00:20:58;102725.16;;;9.13;66.15
64739;BME280;51175;51.186;0.276;2023-01-28T00:21:28;102714.59;;;9.13;66.16
64739;BME280;51175;51.186;0.276;2023-01-28T00:21:59;102719.28;;;9.11;65.82
64739;BME280;51175;51.186;0.276;2023-01-28T00:22:30;102723.72;;;9.11;66.03
64739;BME280;51175;51.186;0.276;2023-01-28T00:23:01;102726.34;;;9.11;66.02
64739;BME280;51175;51.186;0.276;2023-01-28T00:23:34;102729.00;;;9.11;66.09
64739;BME280;51175;51.186;0.276;2023-01-28T00:24:05;102725.53;;;9.10;66.19
64739;BME280;51175;51.186;0.276;2023-01-28T00:24:36;102724.53;;;9.11;66.08
64739;BME280;51175;51.186;0.276;2023-01-28T00:25:06;102731.81;;;9.09;66.11
64739;BME280;51175;51.186;0.276;2023-01-28T00:25:37;102729.19;;;9.09;66.16
64739;BME280;51175;51.186;0.276;2023-01-28T00:26:12;102728.38;;;9.09;65.98
64739;BME280;51175;51.186;0.276;2023-01-28T00:26:43;102725.72;;;9.09;66.13
64739;BME280;51175;51.186;0.276;2023-01-28T00:27:14;102735.47;;;9.08;66.33
64739;BME280;51175;51.186;0.276;2023-01-28T00:27:44;102728.38;;;9.09;66.27
64739;BME280;51175;51.186;0.276;2023-01-28T00:28:15;102734.47;;;9.09;66.23
64739;BME280;51175;51.186;0.276;2023-01-28T00:28:45;102725.72;;;9.09;66.03
64739;BME280;51175;51.186;0.276;2023-01-28T00:29:16;102723.09;;;9.09;66.29
64739;BME280;51175;51.186;0.276;2023-01-28T00:29:47;102724.94;;;9.08;66.18
64739;BME280;51175;51.186;0.276;2023-01-28T00:30:17;102724.09;;;9.07;66.14
64739;BME280;51175;51.186;0.276;2023-01-28T00:30:48;102730.22;;;9.08;66.05
64739;BME280;51175;51.186;0.276;2023-01-28T00:31:21;102734.66;;;9.07;66.20
64739;BME280;51175;51.186;0.276;2023-01-28T00:31:52;102736.47;;;9.07;66.19
64739;BME280;51175;51.186;0.276;2023-01-28T00:32:23;102734.66;;;9.07;66.08
64739;BME280;51175;51.186;0.276;2023-01-28T00:32:54;102731.19;;;9.07;66.12
64739;BME280;51175;51.186;0.276;2023-01-28T00:33:24;102738.13;;;9.08;65.95
64739;BME280;51175;51.186;0.276;2023-01-28T00:33:55;102728.56;;;9.07;66.13
64739;BME280;51175;51.186;0.276;2023-01-28T00:34:26;102730.41;;;9.06;66.00
64739;BME280;51175;51.186;0.276;2023-01-28T00:34:56;102730.41;;;9.06;66.20
64739;BME280;51175;51.186;0.276;2023-01-28T00:35:27;102732.84;;;9.08;66.08
64739;BME280;51175;51.186;0.276;2023-01-28T00:36:00;102731.19;;;9.07;66.02
64739;BME280;51175;51.186;0.276;2023-01-28T00:36:30;102731.19;;;9.07;66.12
64739;BME280;51175;51.186;0.276;2023-01-28T00:37:01;102730.41;;;9.06;66.04
64739;BME280;51175;51.186;0.276;2023-01-28T00:37:31;102723.28;;;9.07;66.01
64739;BME280;51175;51.186;0.276;2023-01-28T00:38:01;102731.19;;;9.07;66.10
64739;BME280;51175;51.186;0.276;2023-01-28T00:38:33;102730.41;;;9.06;66.10
64739;BME280;51175;51.186;0.276;2023-01-28T00:39:05;102733.03;;;9.06;66.11
64739;BME280;51175;51.186;0.276;2023-01-28T00:39:35;102722.50;;;9.06;66.07
64739;BME280;51175;51.186;0.276;2023-01-28T00:40:06;102727.97;;;9.05;66.04
64739;BME280;51175;51.186;0.276;2023-01-28T00:40:39;102730.59;;;9.05;66.05
64739;BME280;51175;51.186;0.276;2023-01-28T00:41:15;102730.59;;;9.05;66.14
64739;BME280;51175;51.186;0.276;2023-01-28T00:41:46;102730.59;;;9.05;66.02
64739;BME280;51175;51.186;0.276;2023-01-28T00:42:16;102728.94;;;9.04;65.99
64739;BME280;51175;51.186;0.276;2023-01-28T00:42:47;102729.78;;;9.04;65.97
64739;BME280;51175;51.186;0.276;2023-01-28T00:43:17;102732.41;;;9.04;66.11
64739;BME280;51175;51.186;0.276;2023-01-28T00:43:48;102725.50;;;9.03;66.14
64739;BME280;51175;51.186;0.276;2023-01-28T00:44:19;102728.94;;;9.04;66.11
64739;BME280;51175;51.186;0.276;2023-01-28T00:44:49;102728.16;;;9.03;66.09
64739;BME280;51175;51.186;0.276;2023-01-28T00:45:20;102727.97;;;9.05;66.21
64739;BME280;51175;51.186;0.276;2023-01-28T00:45:50;102724.69;;;9.03;66.19
64739;BME280;51175;51.186;0.276;2023-01-28T00:46:21;102724.69;;;9.03;66.26
64739;BME280;51175;51.186;0.276;2023-01-28T00:46:52;102731.59;;;9.04;66.01
64739;BME280;51175;51.186;0.276;2023-01-28T00:47:22;102731.59;;;9.04;66.08
64739;BME280;51175;51.186;0.276;2023-01-28T00:47:53;102731.78;;;9.02;66.08
64739;BME280;51175;51.186;0.276;2023-01-28T00:48:24;102730.16;;;9.01;66.22
64739;BME280;51175;51.186;0.276;2023-01-28T00:48:54;102728.34;;;9.02;66.18
64739;BME280;51175;51.186;0.276;2023-01-28T00:49:24;102734.41;;;9.02;66.16
64739;BME280;51175;51.186;0.276;2023-01-28T00:49:55;102732.59;;;9.03;66.15
64739;BME280;51175;51.186;0.276;2023-01-28T00:50:25;102729.13;;;9.02;66.09
64739;BME280;51175;51.186;0.276;2023-01-28T00:50:56;102730.16;;;9.01;66.01
64739;BME280;51175;51.186;0.276;2023-01-28T00:51:26;102728.34;;;9.02;66.08
64739;BME280;51175;51.186;0.276;2023-01-28T00:51:56;102731.78;;;9.02;66.01
64739;BME280;51175;51.186;0.276;2023-01-28T00:52:27;102729.34;;;9.01;66.10
64739;BME280;51175;51.186;0.276;2023-01-28T00:52:57;102718.00;;;9.00;65.89
64739;BME280;51175;51.186;0.276;2023-01-28T00:53:28;102729.34;;;9.01;66.03
64739;BME280;51175;51.186;0.276;2023-01-28T00:53:59;102729.53;;;8.99;66.09
64739;BME280;51175;51.186;0.276;2023-01-28T00:54:29;102724.25;;;8.99;65.96
64739;BME280;51175;51.186;0.276;2023-01-28T00:55:01;102726.88;;;8.99;66.03
64739;BME280;51175;51.186;0.276;2023-01-28T00:55:31;102726.88;;;8.99;66.19
64739;BME280;51175;51.186;0.276;2023-01-28T00:56:06;102728.69;;;8.99;66.05
64739;BME280;51175;51.186;0.276;2023-01-28T00:56:37;102726.88;;;8.99;66.05
64739;BME280;51175;51.186;0.276;2023-01-28T00:57:08;102727.91;;;8.98;66.13
64739;BME280;51175;51.186;0.276;2023-01-28T00:57:38;102728.69;;;8.99;66.10
64739;BME280;51175;51.186;0.276;2023-01-28T00:58:08;102727.91;;;8.98;65.83
64739;BME280;51175;51.186;0.276;2023-01-28T00:58:39;102727.91;;;8.98;66.04
64739;BME280;51175;51.186;0.276;2023-01-28T00:59:09;102725.28;;;8.98;66.01
64739;BME280;51175;51.186;0.276;2023-01-28T00:59:39;102724.44;;;8.98;65.91
64739;BME280;51175;51.186;0.276;2023-01-28T01:00:10;102725.28;;;8.98;65.99
64739;BME280;51175;51.186;0.276;2023-01-28T01:00:41;102729.72;;;8.98;66.11
64739;BME280;51175;51.186;0.276;2023-01-28T01:01:23;102727.91;;;8.98;66.05
64739;BME280;51175;51.186;0.276;2023-01-28T01:01:54;102725.28;;;8.98;65.99
64739;BME280;51175;51.186;0.276;2023-01-28T01:02:41;102725.47;;;8.97;66.01
64739;BME280;51175;51.186;0.276;2023-01-28T01:03:12;102728.09;;;8.97;66.03
64739;BME280;51175;51.186;0.276;2023-01-28T01:03:43;102728.09;;;8.97;66.06
64739;BME280;51175;51.186;0.276;2023-01-28T01:04:13;102725.66;;;8.95;66.11
64739;BME280;51175;51.186;0.276;2023-01-28T01:04:55;102729.91;;;8.96;65.95
64739;BME280;51175;51.186;0.276;2023-01-28T01:05:29;102731.72;;;8.96;66.00
64739;BME280;51175;51.186;0.276;2023-01-28T01:05:59;102727.47;;;8.94;66.04
64739;BME280;51175;51.186;0.276;2023-01-28T01:06:33;102724.00;;;8.94;66.16
64739;BME280;51175;51.186;0.276;2023-01-28T01:07:04;102727.47;;;8.94;65.88
64739;BME280;51175;51.186;0.276;2023-01-28T01:07:34;102725.66;;;8.95;65.98
64739;BME280;51175;51.186;0.276;2023-01-28T01:08:10;102726.66;;;8.94;65.95
64739;BME280;51175;51.186;0.276;2023-01-28T01:08:41;102730.09;;;8.94;66.00
64739;BME280;51175;51.186;0.276;2023-01-28T01:09:19;102729.28;;;8.94;66.10
64739;BME280;51175;51.186;0.276;2023-01-28T01:09:49;102730.09;;;8.94;65.96
64739;BME280;51175;51.186;0.276;2023-01-28T01:10:21;102731.13;;;8.93;65.96
64739;BME280;51175;51.186;0.276;2023-01-28T01:10:52;102728.50;;;8.93;66.05
64739;BME280;51175;51.186;0.276;2023-01-28T01:11:22;102733.75;;;8.93;66.08
64739;BME280;51175;51.186;0.276;2023-01-28T01:11:54;102729.47;;;8.92;66.17
64739;BME280;51175;51.186;0.276;2023-01-28T01:12:24;102732.94;;;8.93;66.13
64739;BME280;51175;51.186;0.276;2023-01-28T01:12:54;102739.03;;;8.93;66.13
64739;BME280;51175;51.186;0.276;2023-01-28T01:13:27;102736.41;;;8.93;65.98
64739;BME280;51175;51.186;0.276;2023-01-28T01:13:58;102740.84;;;8.93;66.08
64739;BME280;51175;51.186;0.276;2023-01-28T01:14:29;102733.94;;;8.92;66.27
64739;BME280;51175;51.186;0.276;2023-01-28T01:15:00;102736.59;;;8.92;66.07
64739;BME280;51175;51.186;0.276;2023-01-28T01:15:30;102738.19;;;8.93;66.02
64739;BME280;51175;51.186;0.276;2023-01-28T01:16:35;102733.94;;;8.92;66.16
64739;BME280;51175;51.186;0.276;2023-01-28T01:17:07;102730.50;;;8.91;66.05
64739;BME280;51175;51.186;0.276;2023-01-28T01:17:39;102730.50;;;8.91;66.10
64739;BME280;51175;51.186;0.276;2023-01-28T01:18:10;102730.50;;;8.91;66.15
64739;BME280;51175;51.186;0.276;2023-01-28T01:18:40;102730.50;;;8.91;66.08
64739;BME280;51175;51.186;0.276;2023-01-28T01:19:12;102735.56;;;8.93;66.14
64739;BME280;51175;51.186;0.276;2023-01-28T01:19:42;102728.69;;;8.92;65.97
64739;BME280;51175;51.186;0.276;2023-01-28T01:20:25;102733.13;;;8.91;66.03
64739;BME280;51175;51.186;0.276;2023-01-28T01:20:55;102733.13;;;8.91;66.15
64739;BME280;51175;51.186;0.276;2023-01-28T01:21:28;102732.94;;;8.93;65.99
64739;BME280;51175;51.186;0.276;2023-01-28T01:21:59;102736.78;;;8.90;65.96
64739;BME280;51175;51.186;0.276;2023-01-28T01:22:34;102734.16;;;8.90;66.10
64739;BME280;51175;51.186;0.276;2023-01-28T01:23:05;102735.97;;;8.90;66.01
64739;BME280;51175;51.186;0.276;2023-01-28T01:23:35;102733.31;;;8.90;66.00
64739;BME280;51175;51.186;0.276;2023-01-28T01:24:06;102732.31;;;8.91;66.04
64739;BME280;51175;51.186;0.276;2023-01-28T01:24:36;102737.75;;;8.89;66.02
64739;BME280;51175;51.186;0.276;2023-01-28T01:25:07;102734.16;;;8.90;66.03
64739;BME280;51175;51.186;0.276;2023-01-28T01:25:38;102736.78;;;8.90;66.06
64739;BME280;51175;51.186;0.276;2023-01-28T01:26:09;102729.84;;;8.89;66.22
64739;BME280;51175;51.186;0.276;2023-01-28T01:26:40;102735.13;;;8.89;66.06
64739;BME280;51175;51.186;0.276;2023-01-28T01:27:10;102728.25;;;8.88;66.05
64739;BME280;51175;51.186;0.276;2023-01-28T01:27:42;102729.06;;;8.89;66.17
64739;BME280;51175;51.186;0.276;2023-01-28T01:28:14;102734.34;;;8.89;66.04
64739;BME280;51175;51.186;0.276;2023-01-28T01:28:44;102733.50;;;8.88;66.19
64739;BME280;51175;51.186;0.276;2023-01-28T01:29:15;102730.06;;;8.88;66.04
64739;BME280;51175;51.186;0.276;2023-01-28T01:29:45;102722.97;;;8.88;66.08
64739;BME280;51175;51.186;0.276;2023-01-28T01:30:16;102729.25;;;8.87;66.01
64739;BME280;51175;51.186;0.276;2023-01-28T01:30:47;102727.59;;;8.86;66.19
64739;BME280;51175;51.186;0.276;2023-01-28T01:31:19;102722.34;;;8.86;65.96
64739;BME280;51175;51.186;0.276;2023-01-28T01:31:50;102725.81;;;8.87;66.07
64739;BME280;51175;51.186;0.276;2023-01-28T01:32:20;102725.81;;;8.87;66.30
64739;BME280;51175;51.186;0.276;2023-01-28T01:32:51;102731.06;;;8.87;66.12
64739;BME280;51175;51.186;0.276;2023-01-28T01:33:21;102737.34;;;8.86;66.07
64739;BME280;51175;51.186;0.276;2023-01-28T01:33:52;102722.34;;;8.86;66.11
64739;BME280;51175;51.186;0.276;2023-01-28T01:34:22;102726.00;;;8.85;65.83
64739;BME280;51175;51.186;0.276;2023-01-28T01:34:53;102724.19;;;8.86;66.09
64739;BME280;51175;51.186;0.276;2023-01-28T01:35:23;102727.59;;;8.86;65.99
64739;BME280;51175;51.186;0.276;2023-01-28T01:35:56;102723.34;;;8.85;66.11
64739;BME280;51175;51.186;0.276;2023-01-28T01:36:26;102726.81;;;8.86;66.00
64739;BME280;51175;51.186;0.276;2023-01-28T01:36:57;102722.34;;;8.86;66.22
64739;BME280;51175;51.186;0.276;2023-01-28T01:37:28;102724.97;;;8.86;66.01
64739;BME280;51175;51.186;0.276;2023-01-28T01:37:58;102723.34;;;8.85;66.02
64739;BME280;51175;51.186;0.276;2023-01-28T01:38:29;102723.16;;;8.87;66.09
64739;BME280;51175;51.186;0.276;2023-01-28T01:38:59;102718.09;;;8.85;66.01
64739;BME280;51175;51.186;0.276;2023-01-28T01:39:30;102720.72;;;8.85;66.00
64739;BME280;51175;51.186;0.276;2023-01-28T01:40:00;102716.28;;;8.86;65.97
64739;BME280;51175;51.186;0.276;2023-01-28T01:40:32;102715.44;;;8.85;66.13
64739;BME280;51175;51.186;0.276;2023-01-28T01:41:03;102718.91;;;8.86;66.13
64739;BME280;51175;51.186;0.276;2023-01-28T01:41:34;102724.19;;;8.86;66.00
64739;BME280;51175;51.186;0.276;2023-01-28T01:42:05;102719.09;;;8.84;65.97
64739;BME280;51175;51.186;0.276;2023-01-28T01:42:35;102717.25;;;8.85;66.17
64739;BME280;51175;51.186;0.276;2023-01-28T01:43:15;102717.25;;;8.85;65.84
64739;BME280;51175;51.186;0.276;2023-01-28T01:44:59;102718.09;;;8.85;66.13
64739;BME280;51175;51.186;0.276;2023-01-28T01:45:33;102715.66;;;8.84;65.98
64739;BME280;51175;51.186;0.276;2023-01-28T01:46:03;102720.09;;;8.83;66.07
64739;BME280;51175;51.186;0.276;2023-01-28T01:46:47;102717.44;;;8.83;66.01
64739;BME280;51175;51.186;0.276;2023-01-28T01:47:23;102717.66;;;8.81;66.05
64739;BME280;51175;51.186;0.276;2023-01-28T01:48:14;102714.03;;;8.82;65.88
64739;BME280;51175;51.186;0.276;2023-01-28T01:48:47;102715.00;;;8.81;66.16
64739;BME280;51175;51.186;0.276;2023-01-28T01:49:23;102717.66;;;8.81;66.24
64739;BME280;51175;51.186;0.276;2023-01-28T01:49:54;102720.28;;;8.81;66.14
64739;BME280;51175;51.186;0.276;2023-01-28T01:50:32;102718.66;;;8.80;66.08
64739;BME280;51175;51.186;0.276;2023-01-28T01:51:06;102722.13;;;8.81;66.08
64739;BME280;51175;51.186;0.276;2023-01-28T01:51:39;102720.47;;;8.80;66.15
64739;BME280;51175;51.186;0.276;2023-01-28T01:52:12;102725.75;;;8.80;66.01
64739;BME280;51175;51.186;0.276;2023-01-28T01:52:45;102723.94;;;8.80;66.17
64739;BME280;51175;51.186;0.276;2023-01-28T01:53:19;102729.41;;;8.79;65.95
64739;BME280;51175;51.186;0.276;2023-01-28T01:53:53;102726.56;;;8.80;66.06
64739;BME280;51175;51.186;0.276;2023-01-28T01:54:27;102731.22;;;8.78;66.17
64739;BME280;51175;51.186;0.276;2023-01-28T01:55:02;102729.41;;;8.79;66.13
64739;BME280;51175;51.186;0.276;2023-01-28T01:55:34;102731.22;;;8.78;66.14
64739;BME280;51175;51.186;0.276;2023-01-28T01:56:10;102733.03;;;8.78;66.19
64739;BME280;51175;51.186;0.276;2023-01-28T01:56:43;102736.47;;;8.78;66.13
64739;BME280;51175;51.186;0.276;2023-01-28T01:57:22;102726.94;;;8.77;66.13
64739;BME280;51175;51.186;0.276;2023-01-28T01:57:55;102736.66;;;8.77;66.12
64739;BME280;51175;51.186;0.276;2023-01-28T01:58:30;102729.59;;;8.77;66.08
64739;BME280;51175;51.186;0.276;2023-01-28T01:59:03;102730.59;;;8.76;66.17
64739;BME280;51175;51.186;0.276;2023-01-28T01:59:35;102734.03;;;8.77;66.36
64739;BME280;51175;51.186;0.276;2023-01-28T02:00:07;102739.31;;;8.77;66.27
64739;BME280;51175;51.186;0.276;2023-01-28T02:00:39;102728.75;;;8.77;66.24
64739;BME280;51175;51.186;0.276;2023-01-28T02:01:10;102734.84;;;8.77;66.18
64739;BME280;51175;51.186;0.276;2023-01-28T02:01:43;102734.84;;;8.77;66.00
64739;BME280;51175;51.186;0.276;2023-01-28T02:02:14;102732.22;;;8.77;66.15
64739;BME280;51175;51.186;0.276;2023-01-28T02:02:47;102730.59;;;8.76;66.07
64739;BME280;51175;51.186;0.276;2023-01-28T02:03:27;102736.66;;;8.77;66.10
64739;BME280;51175;51.186;0.276;2023-01-28T02:04:05;102728.97;;;8.75;66.09
64739;BME280;51175;51.186;0.276;2023-01-28T02:04:39;102732.41;;;8.76;66.15
64739;BME280;51175;51.186;0.276;2023-01-28T02:05:12;102736.06;;;8.75;66.11
64739;BME280;51175;51.186;0.276;2023-01-28T02:05:43;102739.50;;;8.75;66.14
64739;BME280;51175;51.186;0.276;2023-01-28T02:06:13;102738.69;;;8.75;66.11
64739;BME280;51175;51.186;0.276;2023-01-28T02:06:44;102738.69;;;8.75;66.12
64739;BME280;51175;51.186;0.276;2023-01-28T02:07:15;102736.84;;;8.75;66.17
64739;BME280;51175;51.186;0.276;2023-01-28T02:07:51;102736.06;;;8.75;66.05
64739;BME280;51175;51.186;0.276;2023-01-28T02:08:24;102737.88;;;8.74;66.09
64739;BME280;51175;51.186;0.276;2023-01-28T02:08:55;102734.22;;;8.75;66.05
64739;BME280;51175;51.186;0.276;2023-01-28T02:09:29;102733.44;;;8.75;66.09
64739;BME280;51175;51.186;0.276;2023-01-28T02:10:00;102738.69;;;8.75;66.07
64739;BME280;51175;51.186;0.276;2023-01-28T02:10:31;102732.59;;;8.74;66.05
64739;BME280;51175;51.186;0.276;2023-01-28T02:11:04;102735.25;;;8.74;66.16
64739;BME280;51175;51.186;0.276;2023-01-28T02:11:35;102735.25;;;8.74;66.14
64739;BME280;51175;51.186;0.276;2023-01-28T02:12:19;102738.69;;;8.75;66.07
64739;BME280;51175;51.186;0.276;2023-01-28T02:12:55;102731.78;;;8.74;66.17
64739;BME280;51175;51.186;0.276;2023-01-28T02:13:35;102744.97;;;8.74;66.02
64739;BME280;51175;51.186;0.276;2023-01-28T02:14:07;102750.22;;;8.74;66.07
64739;BME280;51175;51.186;0.276;2023-01-28T02:14:41;102740.69;;;8.73;66.08
64739;BME280;51175;51.186;0.276;2023-01-28T02:15:17;102751.25;;;8.73;66.09
64739;BME280;51175;51.186;0.276;2023-01-28T02:15:48;102749.44;;;8.73;66.21
64739;BME280;51175;51.186;0.276;2023-01-28T02:16:19;102755.50;;;8.74;66.15
64739;BME280;51175;51.186;0.276;2023-01-28T02:16:51;102753.06;;;8.72;66.20
64739;BME280;51175;51.186;0.276;2023-01-28T02:17:21;102747.78;;;8.72;66.12
64739;BME280;51175;51.186;0.276;2023-01-28T02:17:52;102746.78;;;8.73;66.12
64739;BME280;51175;51.186;0.276;2023-01-28T02:18:22;102744.34;;;8.72;66.10
64739;BME280;51175;51.186;0.276;2023-01-28T02:18:53;102744.16;;;8.73;65.97
64739;BME280;51175;51.186;0.276;2023-01-28T02:19:27;102745.97;;;8.73;66.11
64739;BME280;51175;51.186;0.276;2023-01-28T02:20:55;102749.44;;;8.73;66.16
64739;BME280;51175;51.186;0.276;2023-01-28T02:21:54;102742.50;;;8.72;66.09
64739;BME280;51175;51.186;0.276;2023-01-28T02:24:18;102741.72;;;8.72;66.03
64739;BME280;51175;51.186;0.276;2023-01-28T02:24:36;102747.78;;;8.72;66.05
64739;BME280;51175;51.186;0.276;2023-01-28T02:29:29;102748.53;;;8.66;66.18
64739;BME280;51175;51.186;0.276;2023-01-28T02:30:41;102741.66;;;8.65;66.44
64739;BME280;51175;51.186;0.276;2023-01-28T02:32:02;102743.47;;;8.64;66.34
64739;BME280;51175;51.186;0.276;2023-01-28T02:33:04;102747.72;;;8.65;66.37
64739;BME280;51175;51.186;0.276;2023-01-28T02:33:56;102743.47;;;8.64;66.30
64739;BME280;51175;51.186;0.276;2023-01-28T02:34:40;102751.38;;;8.64;66.39
64739;BME280;51175;51.186;0.276;2023-01-28T02:35:34;102744.47;;;8.63;66.25
64739;BME280;51175;51.186;0.276;2023-01-28T02:37:55;102756.81;;;8.63;66.26
64739;BME280;51175;51.186;0.276;2023-01-28T02:38:32;102762.91;;;8.63;66.46
64739;BME280;51175;51.186;0.276;2023-01-28T02:39:10;102762.09;;;8.63;66.38
64739;BME280;51175;51.186;0.276;2023-01-28T02:39:47;102754.19;;;8.63;66.45
64739;BME280;51175;51.186;0.276;2023-01-28T02:40:27;102753.38;;;8.62;66.38
64739;BME280;51175;51.186;0.276;2023-01-28T02:41:09;102745.47;;;8.62;66.37
64739;BME280;51175;51.186;0.276;2023-01-28T02:41:47;102746.28;;;8.63;66.30
64739;BME280;51175;51.186;0.276;2023-01-28T02:42:25;102743.66;;;8.63;66.25
64739;BME280;51175;51.186;0.276;2023-01-28T02:42:56;102741.03;;;8.63;66.34
64739;BME280;51175;51.186;0.276;2023-01-28T02:43:37;102737.56;;;8.62;66.39
64739;BME280;51175;51.186;0.276;2023-01-28T02:44:08;102741.03;;;8.63;66.49
64739;BME280;51175;51.186;0.276;2023-01-28T02:44:38;102734.13;;;8.62;66.31
64739;BME280;51175;51.186;0.276;2023-01-28T02:45:16;102735.94;;;8.61;66.43
64739;BME280;51175;51.186;0.276;2023-01-28T02:45:47;102734.94;;;8.62;66.33
64739;BME280;51175;51.186;0.276;2023-01-28T02:46:37;102733.31;;;8.61;66.20
64739;BME280;51175;51.186;0.276;2023-01-28T02:47:26;102745.47;;;8.62;66.36
64739;BME280;51175;51.186;0.276;2023-01-28T02:48:16;102744.66;;;8.62;66.37
64739;BME280;51175;51.186;0.276;2023-01-28T02:48:48;102738.56;;;8.61;66.39
64739;BME280;51175;51.186;0.276;2023-01-28T02:49:23;102743.84;;;8.61;66.37
64739;BME280;51175;51.186;0.276;2023-01-28T02:49:58;102750.13;;;8.60;66.33
64739;BME280;51175;51.186;0.276;2023-01-28T02:50:37;102741.22;;;8.61;66.36
64739;BME280;51175;51.186;0.276;2023-01-28T02:51:20;102744.66;;;8.62;66.40
64739;BME280;51175;51.186;0.276;2023-01-28T02:52:24;102733.31;;;8.61;66.41
64739;BME280;51175;51.186;0.276;2023-01-28T02:53:38;102738.56;;;8.61;66.33
64739;BME280;51175;51.186;0.276;2023-01-28T02:54:28;102735.94;;;8.61;66.43
64739;BME280;51175;51.186;0.276;2023-01-28T02:55:11;102742.22;;;8.60;66.39
64739;BME280;51175;51.186;0.276;2023-01-28T02:56:00;102741.41;;;8.60;66.33
64739;BME280;51175;51.186;0.276;2023-01-28T02:57:43;102741.41;;;8.60;66.25
64739;BME280;51175;51.186;0.276;2023-01-28T02:58:39;102745.84;;;8.59;66.27
64739;BME280;51175;51.186;0.276;2023-01-28T03:00:10;102737.34;;;8.57;66.32
64739;BME280;51175;51.186;0.276;2023-01-28T03:01:53;102747.88;;;8.57;66.37
64739;BME280;51175;51.186;0.276;2023-01-28T03:02:43;102751.31;;;8.57;66.37
64739;BME280;51175;51.186;0.276;2023-01-28T03:03:33;102748.66;;;8.57;66.36
64739;BME280;51175;51.186;0.276;2023-01-28T03:04:13;102740.16;;;8.55;66.53
64739;BME280;51175;51.186;0.276;2023-01-28T03:05:28;102747.88;;;8.57;66.32
64739;BME280;51175;51.186;0.276;2023-01-28T03:06:02;102748.88;;;8.56;66.40
64739;BME280;51175;51.186;0.276;2023-01-28T03:06:45;102746.22;;;8.56;66.32
64739;BME280;51175;51.186;0.276;2023-01-28T03:07:17;102742.81;;;8.55;66.51
64739;BME280;51175;51.186;0.276;2023-01-28T03:07:50;102743.59;;;8.56;66.45
64739;BME280;51175;51.186;0.276;2023-01-28T03:08:21;102743.59;;;8.56;66.44
64739;BME280;51175;51.186;0.276;2023-01-28T03:09:11;102743.59;;;8.56;66.49
64739;BME280;51175;51.186;0.276;2023-01-28T03:09:53;102740.97;;;8.56;66.46
64739;BME280;51175;51.186;0.276;2023-01-28T03:10:28;102740.97;;;8.56;66.42
64739;BME280;51175;51.186;0.276;2023-01-28T03:10:58;102748.88;;;8.56;66.44
64739;BME280;51175;51.186;0.276;2023-01-28T03:11:57;102747.88;;;8.57;66.45
64739;BME280;51175;51.186;0.276;2023-01-28T03:12:51;102748.66;;;8.57;66.62
64739;BME280;51175;51.186;0.276;2023-01-28T03:13:43;102745.25;;;8.57;66.58
64739;BME280;51175;51.186;0.276;2023-01-28T03:14:33;102748.66;;;8.57;66.36
64739;BME280;51175;51.186;0.276;2023-01-28T03:15:34;102748.88;;;8.56;66.40